Mount Enterprise, Texas
Current Conditions -  °F | °C
As of 4:55 AM on Monday 20 Oct 2014 (Local Time) from KRFI Reporting Station
Clear Clear  
Wind Chill: 51°   Ceiling: Unl
Heat Index: 51°   Visibility: 10mi
Dew Point: 51°   Wind: 0mph
Humidity: 98%   Direction: NA
Pressure: 30.06"   Gusts: NA
Location:  31.92°N, 94.68°W
Report Text: KRFI 200955Z AUTO 00000KT 10SM CLR 11/10 A3006 RMK AO2 T01060103
Loading
Personal Weather Stations






























Interactive Weather Map
Tropical Storm Tracking
New forecast layout! Learn more

10-Day Weather Forecast

Advertisements
Track Severe Weather on mobile